Detalii statie Pioneer South Africa DEMO [00001DA1]

Toti senzorii

Date Solar radiation Dgt [W/mm]Precipitatii [mm]Viteza vantului [m/s]Voltaj baterie [mV]Leaf Wetness [Min]HC Air temperature [C]HC Relative humidity [%]Punctul de roua [C]
mediesumamediemaxultimatimpmedieminmaxmediemediemin
2017-12-10 22:00:00 0 0.6 0.2 1.4 6464 17.39 16.91 17.82 91.36 15.9 15.6
2017-12-10 23:00:00 0 0.2 0.1 0.7 6464 17.31 16.4 17.86 91.12 15.7 15
2017-12-11 00:00:00 0 0.8 0.3 0.8 6464 15.86 15.67 16.09 100 15.8 15.6
2017-12-11 01:00:00 0 0.8 0.1 0.4 6444 15.69 15.12 15.93 99.92 15.6 14.9
2017-12-11 02:00:00 0 0.6 0.2 0.5 6434 14.81 14.69 15.08 98.32 14.4 14.1
2017-12-11 03:00:00 0 0.6 0 0.2 6424 14.59 14.48 14.78 99.26 14.3 14
2017-12-11 04:00:00 0 0.6 0 0.1 6434 14.61 14.41 15.02 100 14.5 14.4
2017-12-11 05:00:00 0 0.4 0 0.2 6416 14.7 14.42 14.95 100 14.6 14.4
2017-12-11 06:00:00 8 0.4 0.1 0.5 6444 14.66 14.56 14.81 100 14.6 14.5
2017-12-11 07:00:00 40 0.2 0.3 0.7 6494 14.75 14.6 15.03 100 14.7 14.6
2017-12-11 08:00:00 204 0 0.4 0.8 6894 15.87 15.16 17.49 97.08 15.2 15.1
2017-12-11 09:00:00 329 0 1 1.5 6884 18.17 17.52 19.2 82.95 15.1 14.8
2017-12-11 10:00:00 252 0 1.4 2.3 6854 19.12 18.51 19.88 77.27 14.9 14.7
2017-12-11 11:00:00 240 0 0.9 2.3 6904 19.14 18.46 19.66 78.84 15.2 14.9
2017-12-11 12:00:00 312 0 0.8 1.4 6894 20.25 19.41 22.08 75.76 15.7 15.4
2017-12-11 13:00:00 614 0 1.3 2.3 6894 22.55 21.33 23.91 63.62 15.1 14.5
2017-12-11 14:00:00 667 0 2 2.5 6894 23.78 22.85 24.4 56.72 14.4 14.1
2017-12-11 15:00:00 784 0 1.8 2.6 6884 25.38 24.57 26.19 50.64 14.2 13.5
2017-12-11 16:00:00 539 0 1.8 2.4 6786 24.89 24.27 25.64 51.48 14 13.4
2017-12-11 17:00:00 274 0 1.7 2.3 6874 24.28 23.06 25.16 52.26 13.7 13.2
2017-12-11 18:00:00 104 0 1.5 2.3 6884 22.92 22.8 23.12 57.31 13.8 13.6
2017-12-11 19:00:00 17 0 0.5 1.6 6590 22.16 21.31 23 61.87 14.3 14.1
2017-12-11 20:00:00 0 0 0 0 6552 20.27 19.44 21.16 72.08 14.9 14.3
2017-12-11 21:00:00 0 0 0 0.1 6522 19.12 18.72 19.4 80.24 15.5 15.1
2017-12-11 22:00:00 0 0 0 0.1 6494 19.52 19.05 19.85 75.95 14.9 14.8
2017-12-11 23:00:00 0 0 0 0.1 6494 18.54 18.12 19.06 81.46 15.2 15
2017-12-12 00:00:00 0 0 0 0.2 6464 17.79 17.49 18.4 88.49 15.6 15.4
2017-12-12 01:00:00 0 0 0 0.2 6464 17.54 17.18 17.86 91.72 16 15.9
2017-12-12 02:00:00 0 0 0 0.1 6454 16.86 16.66 17.23 96.77 16.2 16.1
2017-12-12 03:00:00 0 0 0 0 6454 16.43 16.07 16.63 99.57 16.2 15.9
2017-12-12 04:00:00 0 0 0 0 6434 15.83 15.69 16.03 100 15.7 15.6
2017-12-12 05:00:00 0 0 0 0.1 6434 15.75 15.65 15.81 100 15.7 15.6
2017-12-12 06:00:00 10 0 0 0.1 6464 15.94 15.82 16.26 100 15.9 15.8
2017-12-12 07:00:00 42 0 0.2 0.5 6552 17.28 16.36 18.2 93.86 16.1 15.9
2017-12-12 08:00:00 166 0 0.8 1.7 6834 19.52 18.37 20.85 80.24 15.8 15.6
2017-12-12 09:00:00 577 0 1.5 2.3 6894 21.75 20.77 23.3 68.7 15.6 15.1
2017-12-12 10:00:00 774 0 1.3 2.1 6894 23.82 22.41 25.01 60.72 15.6 15.1
2017-12-12 11:00:00 986 0 1.6 2.5 6884 25.22 24.62 25.92 54.72 15.2 14.7
2017-12-12 12:00:00 923 0 1.9 2.3 6894 26.66 25.77 27.68 48.16 14.5 13.6
2017-12-12 13:00:00 993 0 1.7 2.4 6884 27.89 27.01 28.93 43.07 13.9 13.7
2017-12-12 14:00:00 848 0 1.3 2.2 6884 29.52 28.34 30.48 38.1 13.5 12.8
2017-12-12 15:00:00 861 0 1.7 2.6 6786 29.89 29.37 30.56 35.3 12.6 12.1
2017-12-12 16:00:00 670 0 1.4 2.3 6874 30.22 29.63 31.38 33.71 12.2 11.5
2017-12-12 17:00:00 226 0 1.4 1.9 6756 28.79 28.07 30.1 33.78 10.9 10.6
2017-12-12 18:00:00 31 0 0.5 1.3 6620 27.26 24.99 28.18 36.59 10.7 4.1
2017-12-12 19:00:00 0 0.4 1.5 3.2 6512 17.1 15.27 24.12 79.41 12.8 5.5
2017-12-12 20:00:00 0 1 0.2 0.9 6484 15.75 15.26 16.13 99.69 15.6 15